sensor_id;sensor_type;location;lat;lon;timestamp;pressure;altitude;pressure_sealevel;temperature;humidity
22657;BME280;11495;55.610;12.100;2022-09-21T00:01:42;101908.50;;;8.13;0.00
22657;BME280;11495;55.610;12.100;2022-09-21T00:04:07;101902.31;;;8.17;0.00
22657;BME280;11495;55.610;12.100;2022-09-21T00:06:33;101906.00;;;8.11;0.00
22657;BME280;11495;55.610;12.100;2022-09-21T00:08:58;101908.44;;;8.20;0.00
22657;BME280;11495;55.610;12.100;2022-09-21T00:11:27;101913.28;;;8.17;0.00
22657;BME280;11495;55.610;12.100;2022-09-21T00:13:54;101906.38;;;8.15;0.00
22657;BME280;11495;55.610;12.100;2022-09-21T00:16:20;101906.03;;;8.23;0.00
22657;BME280;11495;55.610;12.100;2022-09-21T00:18:46;101900.09;;;8.26;0.00
22657;BME280;11495;55.610;12.100;2022-09-21T00:21:13;101900.47;;;8.30;0.00
22657;BME280;11495;55.610;12.100;2022-09-21T00:23:38;101898.19;;;8.27;0.00
22657;BME280;11495;55.610;12.100;2022-09-21T00:26:08;101896.66;;;8.31;0.00
22657;BME280;11495;55.610;12.100;2022-09-21T00:28:35;101892.25;;;8.30;0.00
22657;BME280;11495;55.610;12.100;2022-09-21T00:31:01;101887.69;;;8.24;0.00
22657;BME280;11495;55.610;12.100;2022-09-21T00:33:26;101889.44;;;8.18;0.00
22657;BME280;11495;55.610;12.100;2022-09-21T00:35:52;101884.94;;;8.12;0.00
22657;BME280;11495;55.610;12.100;2022-09-21T00:38:17;101891.56;;;8.04;0.00
22657;BME280;11495;55.610;12.100;2022-09-21T00:40:42;101879.16;;;8.02;0.00
22657;BME280;11495;55.610;12.100;2022-09-21T00:43:14;101881.75;;;7.97;0.00
22657;BME280;11495;55.610;12.100;2022-09-21T00:45:40;101880.53;;;7.93;0.00
22657;BME280;11495;55.610;12.100;2022-09-21T00:48:06;101879.19;;;7.83;0.00
22657;BME280;11495;55.610;12.100;2022-09-21T00:50:31;101877.84;;;7.74;0.00
22657;BME280;11495;55.610;12.100;2022-09-21T00:52:57;101881.28;;;7.70;0.00
22657;BME280;11495;55.610;12.100;2022-09-21T00:55:32;101873.91;;;7.70;0.00
22657;BME280;11495;55.610;12.100;2022-09-21T00:57:59;101874.13;;;7.69;0.00
22657;BME280;11495;55.610;12.100;2022-09-21T01:00:26;101873.16;;;7.63;0.00
22657;BME280;11495;55.610;12.100;2022-09-21T01:02:51;101862.50;;;7.55;0.00
22657;BME280;11495;55.610;12.100;2022-09-21T01:05:17;101873.53;;;7.48;0.00
22657;BME280;11495;55.610;12.100;2022-09-21T01:07:44;101867.91;;;7.43;0.00
22657;BME280;11495;55.610;12.100;2022-09-21T01:10:13;101873.84;;;7.40;0.00
22657;BME280;11495;55.610;12.100;2022-09-21T01:18:16;101873.38;;;7.43;0.00
22657;BME280;11495;55.610;12.100;2022-09-21T01:20:51;101879.56;;;7.39;0.00
22657;BME280;11495;55.610;12.100;2022-09-21T01:30:51;101885.53;;;7.11;0.00
22657;BME280;11495;55.610;12.100;2022-09-21T01:33:22;101888.25;;;7.11;0.00
22657;BME280;11495;55.610;12.100;2022-09-21T01:35:55;101880.06;;;7.11;0.00
22657;BME280;11495;55.610;12.100;2022-09-21T01:38:23;101878.91;;;7.18;0.00
22657;BME280;11495;55.610;12.100;2022-09-21T01:40:51;101884.34;;;7.25;0.00
22657;BME280;11495;55.610;12.100;2022-09-21T01:43:19;101880.53;;;7.26;0.00
22657;BME280;11495;55.610;12.100;2022-09-21T01:45:46;101878.25;;;7.23;0.00
22657;BME280;11495;55.610;12.100;2022-09-21T01:48:13;101878.91;;;7.18;0.00
22657;BME280;11495;55.610;12.100;2022-09-21T01:50:40;101870.13;;;7.16;0.00
22657;BME280;11495;55.610;12.100;2022-09-21T01:53:29;101880.16;;;7.22;0.00
22657;BME280;11495;55.610;12.100;2022-09-21T01:56:00;101876.28;;;7.30;0.00
22657;BME280;11495;55.610;12.100;2022-09-21T01:58:30;101869.75;;;7.31;0.00
22657;BME280;11495;55.610;12.100;2022-09-21T02:00:57;101871.66;;;7.30;0.00
22657;BME280;11495;55.610;12.100;2022-09-21T02:05:53;101871.28;;;7.45;0.00
22657;BME280;11495;55.610;12.100;2022-09-21T02:08:19;101862.12;;;7.51;0.00
22657;BME280;11495;55.610;12.100;2022-09-21T02:10:46;101866.00;;;7.44;0.00
22657;BME280;11495;55.610;12.100;2022-09-21T02:13:11;101865.56;;;7.28;0.00
22657;BME280;11495;55.610;12.100;2022-09-21T02:16:02;101867.22;;;7.11;0.00
22657;BME280;11495;55.610;12.100;2022-09-21T02:18:42;101875.72;;;7.03;0.00
22657;BME280;11495;55.610;12.100;2022-09-21T02:21:11;101877.00;;;7.00;0.00
22657;BME280;11495;55.610;12.100;2022-09-21T02:23:49;101866.81;;;6.89;0.00
22657;BME280;11495;55.610;12.100;2022-09-21T02:26:20;101875.13;;;6.76;0.00
22657;BME280;11495;55.610;12.100;2022-09-21T02:34:30;101883.56;;;6.50;0.00
22657;BME280;11495;55.610;12.100;2022-09-21T02:37:01;101876.97;;;6.57;0.00
22657;BME280;11495;55.610;12.100;2022-09-21T02:39:30;101880.56;;;6.58;0.00
22657;BME280;11495;55.610;12.100;2022-09-21T02:42:02;101880.81;;;6.50;0.00
22657;BME280;11495;55.610;12.100;2022-09-21T02:44:31;101884.44;;;6.43;0.00
22657;BME280;11495;55.610;12.100;2022-09-21T02:47:10;101890.59;;;6.39;0.00
22657;BME280;11495;55.610;12.100;2022-09-21T02:49:38;101888.50;;;6.34;0.00
22657;BME280;11495;55.610;12.100;2022-09-21T02:52:12;101882.22;;;6.34;0.00
22657;BME280;11495;55.610;12.100;2022-09-21T02:54:39;101880.03;;;6.42;0.00
22657;BME280;11495;55.610;12.100;2022-09-21T02:57:05;101877.31;;;6.42;0.00
22657;BME280;11495;55.610;12.100;2022-09-21T02:59:31;101882.44;;;6.32;0.00
22657;BME280;11495;55.610;12.100;2022-09-21T03:01:57;101885.00;;;6.20;0.00
22657;BME280;11495;55.610;12.100;2022-09-21T03:04:22;101885.25;;;6.19;0.00
22657;BME280;11495;55.610;12.100;2022-09-21T03:06:47;101885.09;;;6.14;0.00
22657;BME280;11495;55.610;12.100;2022-09-21T03:09:13;101884.66;;;6.10;0.00
22657;BME280;11495;55.610;12.100;2022-09-21T03:11:38;101887.00;;;6.07;0.00
22657;BME280;11495;55.610;12.100;2022-09-21T03:14:06;101888.94;;;6.00;0.00
22657;BME280;11495;55.610;12.100;2022-09-21T03:16:36;101884.53;;;5.99;0.00
22657;BME280;11495;55.610;12.100;2022-09-21T03:19:01;101881.81;;;5.99;0.00
22657;BME280;11495;55.610;12.100;2022-09-21T03:21:26;101888.31;;;5.98;0.00
22657;BME280;11495;55.610;12.100;2022-09-21T03:23:52;101895.50;;;5.92;0.00
22657;BME280;11495;55.610;12.100;2022-09-21T03:26:17;101895.94;;;5.82;0.00
22657;BME280;11495;55.610;12.100;2022-09-21T03:28:46;101894.50;;;5.73;0.00
22657;BME280;11495;55.610;12.100;2022-09-21T03:31:11;101897.28;;;5.60;0.00
22657;BME280;11495;55.610;12.100;2022-09-21T03:33:37;101897.72;;;5.57;0.00
22657;BME280;11495;55.610;12.100;2022-09-21T03:36:02;101898.97;;;5.54;0.00
22657;BME280;11495;55.610;12.100;2022-09-21T03:38:28;101892.28;;;5.50;0.00
22657;BME280;11495;55.610;12.100;2022-09-21T03:40:53;101895.22;;;5.49;0.00
22657;BME280;11495;55.610;12.100;2022-09-21T03:43:22;101895.59;;;5.59;0.00
22657;BME280;11495;55.610;12.100;2022-09-21T03:45:47;101894.84;;;5.90;0.00
22657;BME280;11495;55.610;12.100;2022-09-21T03:48:12;101904.50;;;5.99;0.00
22657;BME280;11495;55.610;12.100;2022-09-21T03:50:39;101899.41;;;6.03;0.00
22657;BME280;11495;55.610;12.100;2022-09-21T03:53:05;101896.53;;;5.98;0.00
22657;BME280;11495;55.610;12.100;2022-09-21T03:55:30;101900.12;;;5.91;0.00
22657;BME280;11495;55.610;12.100;2022-09-21T03:57:57;101903.44;;;5.87;0.00
22657;BME280;11495;55.610;12.100;2022-09-21T04:00:22;101901.37;;;5.82;0.00
22657;BME280;11495;55.610;12.100;2022-09-21T04:02:48;101903.91;;;5.77;0.00
22657;BME280;11495;55.610;12.100;2022-09-21T04:05:13;101909.00;;;5.74;0.00
22657;BME280;11495;55.610;12.100;2022-09-21T04:07:39;101909.00;;;5.67;0.00
22657;BME280;11495;55.610;12.100;2022-09-21T04:10:06;101906.53;;;5.59;0.00
22657;BME280;11495;55.610;12.100;2022-09-21T04:12:32;101906.75;;;5.51;0.00
22657;BME280;11495;55.610;12.100;2022-09-21T04:14:59;101906.16;;;5.42;0.00
22657;BME280;11495;55.610;12.100;2022-09-21T04:17:24;101900.50;;;5.37;0.00
22657;BME280;11495;55.610;12.100;2022-09-21T04:19:50;101915.41;;;5.34;0.00
22657;BME280;11495;55.610;12.100;2022-09-21T04:22:15;101910.78;;;5.35;0.00
22657;BME280;11495;55.610;12.100;2022-09-21T04:24:41;101915.19;;;5.36;0.00
22657;BME280;11495;55.610;12.100;2022-09-21T04:27:07;101911.22;;;5.39;0.00
22657;BME280;11495;55.610;12.100;2022-09-21T04:29:32;101905.94;;;5.37;0.00
22657;BME280;11495;55.610;12.100;2022-09-21T04:31:57;101908.06;;;5.28;0.00
22657;BME280;11495;55.610;12.100;2022-09-21T04:34:23;101905.56;;;5.20;0.00
22657;BME280;11495;55.610;12.100;2022-09-21T04:36:48;101909.56;;;5.24;0.00
22657;BME280;11495;55.610;12.100;2022-09-21T04:39:13;101909.13;;;5.27;0.00
22657;BME280;11495;55.610;12.100;2022-09-21T04:41:38;101901.16;;;5.32;0.00
22657;BME280;11495;55.610;12.100;2022-09-21T04:44:04;101902.59;;;5.42;0.00
22657;BME280;11495;55.610;12.100;2022-09-21T04:46:29;101895.25;;;5.42;0.00
22657;BME280;11495;55.610;12.100;2022-09-21T04:48:54;101898.19;;;5.41;0.00
22657;BME280;11495;55.610;12.100;2022-09-21T04:51:20;101904.94;;;5.38;0.00
22657;BME280;11495;55.610;12.100;2022-09-21T04:53:55;101899.88;;;5.35;0.00
22657;BME280;11495;55.610;12.100;2022-09-21T04:56:20;101901.78;;;5.34;0.00
22657;BME280;11495;55.610;12.100;2022-09-21T04:58:45;101894.66;;;5.33;0.00
22657;BME280;11495;55.610;12.100;2022-09-21T05:01:14;101906.00;;;5.30;0.00
22657;BME280;11495;55.610;12.100;2022-09-21T05:03:39;101906.84;;;5.18;0.00
22657;BME280;11495;55.610;12.100;2022-09-21T05:06:07;101914.84;;;5.06;0.00
22657;BME280;11495;55.610;12.100;2022-09-21T05:08:35;101916.12;;;4.97;0.00
22657;BME280;11495;55.610;12.100;2022-09-21T05:11:20;101915.91;;;4.92;0.00
22657;BME280;11495;55.610;12.100;2022-09-21T05:13:45;101914.03;;;4.99;0.00
22657;BME280;11495;55.610;12.100;2022-09-21T05:16:11;101915.25;;;5.10;0.00
22657;BME280;11495;55.610;12.100;2022-09-21T05:18:36;101919.66;;;5.17;0.00
22657;BME280;11495;55.610;12.100;2022-09-21T05:21:02;101914.59;;;5.27;0.00
22657;BME280;11495;55.610;12.100;2022-09-21T05:23:28;101916.69;;;5.39;0.00
22657;BME280;11495;55.610;12.100;2022-09-21T05:25:55;101914.56;;;5.47;0.00
22657;BME280;11495;55.610;12.100;2022-09-21T05:28:24;101914.56;;;5.47;0.00
22657;BME280;11495;55.610;12.100;2022-09-21T05:30:57;101914.75;;;5.46;0.00
22657;BME280;11495;55.610;12.100;2022-09-21T05:33:25;101920.63;;;5.49;0.00
22657;BME280;11495;55.610;12.100;2022-09-21T05:38:20;101926.47;;;5.59;0.00
22657;BME280;11495;55.610;12.100;2022-09-21T05:40:46;101921.22;;;5.58;0.00
22657;BME280;11495;55.610;12.100;2022-09-21T05:43:17;101925.00;;;5.57;0.00
22657;BME280;11495;55.610;12.100;2022-09-21T05:45:44;101923.94;;;5.58;0.00
22657;BME280;11495;55.610;12.100;2022-09-21T05:48:15;101924.16;;;5.63;0.00
22657;BME280;11495;55.610;12.100;2022-09-21T05:50:48;101923.91;;;5.71;0.00
22657;BME280;11495;55.610;12.100;2022-09-21T05:55:57;101926.34;;;5.93;0.00
22657;BME280;11495;55.610;12.100;2022-09-21T05:58:35;101924.00;;;6.03;0.00
22657;BME280;11495;55.610;12.100;2022-09-21T06:03:46;101927.75;;;6.08;0.00
22657;BME280;11495;55.610;12.100;2022-09-21T06:06:18;101921.00;;;6.11;0.00
22657;BME280;11495;55.610;12.100;2022-09-21T06:08:44;101919.75;;;6.13;0.00
22657;BME280;11495;55.610;12.100;2022-09-21T06:11:09;101925.78;;;6.22;0.00
22657;BME280;11495;55.610;12.100;2022-09-21T06:13:34;101926.78;;;6.28;0.00
22657;BME280;11495;55.610;12.100;2022-09-21T06:16:00;101923.00;;;6.29;0.00
22657;BME280;11495;55.610;12.100;2022-09-21T06:18:26;101918.34;;;6.36;0.00
22657;BME280;11495;55.610;12.100;2022-09-21T06:20:51;101923.75;;;6.42;0.00
22657;BME280;11495;55.610;12.100;2022-09-21T06:23:16;101916.97;;;6.52;0.00
22657;BME280;11495;55.610;12.100;2022-09-21T06:25:41;101923.44;;;6.57;0.00
22657;BME280;11495;55.610;12.100;2022-09-21T06:28:08;101913.97;;;6.60;0.00
22657;BME280;11495;55.610;12.100;2022-09-21T06:30:34;101917.31;;;6.62;0.00
22657;BME280;11495;55.610;12.100;2022-09-21T06:33:00;101919.16;;;6.68;0.00
22657;BME280;11495;55.610;12.100;2022-09-21T06:35:26;101911.28;;;6.78;0.00
22657;BME280;11495;55.610;12.100;2022-09-21T06:37:55;101911.72;;;7.00;0.00
22657;BME280;11495;55.610;12.100;2022-09-21T06:40:21;101905.44;;;7.18;0.00
22657;BME280;11495;55.610;12.100;2022-09-21T06:42:46;101909.91;;;7.37;0.00
22657;BME280;11495;55.610;12.100;2022-09-21T06:45:11;101899.22;;;7.66;0.00
22657;BME280;11495;55.610;12.100;2022-09-21T06:47:36;101902.53;;;8.04;0.00
22657;BME280;11495;55.610;12.100;2022-09-21T06:50:02;101890.78;;;8.57;0.00
22657;BME280;11495;55.610;12.100;2022-09-21T06:52:27;101884.25;;;9.28;0.00
22657;BME280;11495;55.610;12.100;2022-09-21T06:54:53;101881.63;;;9.85;0.00
22657;BME280;11495;55.610;12.100;2022-09-21T06:57:18;101874.66;;;10.23;0.00
22657;BME280;11495;55.610;12.100;2022-09-21T06:59:43;101869.53;;;10.60;0.00
22657;BME280;11495;55.610;12.100;2022-09-21T07:02:08;101862.94;;;10.95;0.00
22657;BME280;11495;55.610;12.100;2022-09-21T07:04:34;101850.81;;;11.35;0.00
22657;BME280;11495;55.610;12.100;2022-09-21T07:06:59;101848.78;;;11.47;0.00
22657;BME280;11495;55.610;12.100;2022-09-21T07:09:25;101848.06;;;11.35;0.00
22657;BME280;11495;55.610;12.100;2022-09-21T07:11:50;101848.00;;;11.51;0.00
22657;BME280;11495;55.610;12.100;2022-09-21T07:14:15;101840.50;;;11.47;0.00
22657;BME280;11495;55.610;12.100;2022-09-21T07:16:41;101835.34;;;11.50;0.00
22657;BME280;11495;55.610;12.100;2022-09-21T07:19:07;101834.28;;;11.57;0.00
22657;BME280;11495;55.610;12.100;2022-09-21T07:21:32;101833.91;;;11.92;0.00
22657;BME280;11495;55.610;12.100;2022-09-21T07:23:58;101826.72;;;12.18;0.00
22657;BME280;11495;55.610;12.100;2022-09-21T07:26:24;101828.25;;;12.35;0.00
22657;BME280;11495;55.610;12.100;2022-09-21T07:28:49;101823.06;;;12.81;0.00
22657;BME280;11495;55.610;12.100;2022-09-21T07:31:15;101819.91;;;12.62;0.00
22657;BME280;11495;55.610;12.100;2022-09-21T07:33:41;101823.91;;;12.82;0.00
22657;BME280;11495;55.610;12.100;2022-09-21T07:36:06;101827.69;;;13.13;0.00
22657;BME280;11495;55.610;12.100;2022-09-21T07:38:36;101821.00;;;13.51;0.00
22657;BME280;11495;55.610;12.100;2022-09-21T07:41:03;101833.63;;;13.32;0.00
22657;BME280;11495;55.610;12.100;2022-09-21T07:43:28;101833.00;;;13.87;0.00
22657;BME280;11495;55.610;12.100;2022-09-21T07:45:53;101838.78;;;13.81;0.00
22657;BME280;11495;55.610;12.100;2022-09-21T07:48:22;101849.63;;;14.02;0.00
22657;BME280;11495;55.610;12.100;2022-09-21T07:50:47;101870.97;;;14.22;0.00
22657;BME280;11495;55.610;12.100;2022-09-21T07:53:13;101912.50;;;14.27;0.00
22657;BME280;11495;55.610;12.100;2022-09-21T07:55:41;101963.44;;;14.37;0.00
22657;BME280;11495;55.610;12.100;2022-09-21T07:58:06;102035.97;;;14.39;0.00
22657;BME280;11495;55.610;12.100;2022-09-21T08:00:50;102106.91;;;14.55;0.00
22657;BME280;11495;55.610;12.100;2022-09-21T08:03:16;102185.22;;;15.03;0.00
22657;BME280;11495;55.610;12.100;2022-09-21T08:05:41;102259.88;;;15.35;0.00
22657;BME280;11495;55.610;12.100;2022-09-21T08:08:06;102328.00;;;15.73;0.00
22657;BME280;11495;55.610;12.100;2022-09-21T08:10:33;102406.47;;;15.68;0.00
22657;BME280;11495;55.610;12.100;2022-09-21T08:12:59;102489.69;;;15.68;0.00
22657;BME280;11495;55.610;12.100;2022-09-21T08:15:25;102587.06;;;15.67;0.00
22657;BME280;11495;55.610;12.100;2022-09-21T08:17:51;102700.87;;;15.77;0.00
22657;BME280;11495;55.610;12.100;2022-09-21T08:20:17;102803.59;;;15.82;0.00
22657;BME280;11495;55.610;12.100;2022-09-21T08:22:42;102908.91;;;15.94;0.00
22657;BME280;11495;55.610;12.100;2022-09-21T08:25:08;103001.44;;;16.05;0.00
22657;BME280;11495;55.610;12.100;2022-09-21T08:27:35;103079.31;;;15.93;0.00
22657;BME280;11495;55.610;12.100;2022-09-21T08:30:00;103148.19;;;15.79;0.00
22657;BME280;11495;55.610;12.100;2022-09-21T08:32:27;103219.19;;;15.75;0.00
22657;BME280;11495;55.610;12.100;2022-09-21T08:34:52;103287.63;;;15.41;0.00
22657;BME280;11495;55.610;12.100;2022-09-21T08:37:17;103351.66;;;15.39;0.00
22657;BME280;11495;55.610;12.100;2022-09-21T08:39:43;103361.84;;;15.62;0.00
22657;BME280;11495;55.610;12.100;2022-09-21T08:42:12;103446.16;;;15.61;0.00
22657;BME280;11495;55.610;12.100;2022-09-21T08:47:44;103509.81;;;15.80;0.00
22657;BME280;11495;55.610;12.100;2022-09-21T08:50:28;103523.47;;;15.58;0.00
22657;BME280;11495;55.610;12.100;2022-09-21T08:53:18;103577.66;;;15.84;0.00
22657;BME280;11495;55.610;12.100;2022-09-21T08:55:41;103622.87;;;16.08;0.00
22657;BME280;11495;55.610;12.100;2022-09-21T08:58:14;103686.84;;;16.13;0.00
22657;BME280;11495;55.610;12.100;2022-09-21T09:00:44;103721.63;;;16.15;0.00
22657;BME280;11495;55.610;12.100;2022-09-21T09:05:46;103734.53;;;16.56;0.00
22657;BME280;11495;55.610;12.100;2022-09-21T09:10:50;103723.31;;;16.05;0.00
22657;BME280;11495;55.610;12.100;2022-09-21T09:15:50;103570.44;;;16.23;0.00
22657;BME280;11495;55.610;12.100;2022-09-21T09:20:44;103503.63;;;16.01;0.00
22657;BME280;11495;55.610;12.100;2022-09-21T09:23:24;103443.09;;;16.15;0.00
22657;BME280;11495;55.610;12.100;2022-09-21T09:25:53;103430.06;;;16.15;0.00
22657;BME280;11495;55.610;12.100;2022-09-21T09:30:43;103378.41;;;16.65;0.00
22657;BME280;11495;55.610;12.100;2022-09-21T09:35:45;103326.25;;;16.89;0.00
22657;BME280;11495;55.610;12.100;2022-09-21T09:40:48;103325.41;;;16.54;0.00
22657;BME280;11495;55.610;12.100;2022-09-21T09:45:50;103272.41;;;16.56;0.00
22657;BME280;11495;55.610;12.100;2022-09-21T09:50:43;103226.78;;;16.96;0.00
22657;BME280;11495;55.610;12.100;2022-09-21T09:53:10;103263.75;;;17.13;0.00
22657;BME280;11495;55.610;12.100;2022-09-21T09:55:37;103237.38;;;17.21;0.00
22657;BME280;11495;55.610;12.100;2022-09-21T09:58:04;103186.97;;;17.39;0.00
22657;BME280;11495;55.610;12.100;2022-09-21T10:00:31;103130.59;;;17.22;0.00
22657;BME280;11495;55.610;12.100;2022-09-21T10:02:57;103118.31;;;17.50;0.00
22657;BME280;11495;55.610;12.100;2022-09-21T10:07:54;103245.72;;;18.39;0.00
22657;BME280;11495;55.610;12.100;2022-09-21T10:10:21;103016.59;;;17.69;0.00
22657;BME280;11495;55.610;12.100;2022-09-21T10:12:47;102401.16;;;17.91;0.00
22657;BME280;11495;55.610;12.100;2022-09-21T10:15:13;101606.06;;;17.62;0.00
22657;BME280;11495;55.610;12.100;2022-09-21T10:17:40;101514.00;;;17.45;0.00
22657;BME280;11495;55.610;12.100;2022-09-21T10:20:06;101515.75;;;17.74;0.00
22657;BME280;11495;55.610;12.100;2022-09-21T10:22:38;101517.22;;;17.71;0.00
22657;BME280;11495;55.610;12.100;2022-09-21T10:25:04;101512.03;;;17.78;0.00
22657;BME280;11495;55.610;12.100;2022-09-21T10:27:33;101510.84;;;18.25;0.00
22657;BME280;11495;55.610;12.100;2022-09-21T10:29:59;101517.41;;;18.43;0.00
22657;BME280;11495;55.610;12.100;2022-09-21T10:32:25;101534.75;;;18.54;0.00
22657;BME280;11495;55.610;12.100;2022-09-21T10:37:26;101739.81;;;18.04;0.00
22657;BME280;11495;55.610;12.100;2022-09-21T10:39:52;101768.81;;;18.35;0.00
22657;BME280;11495;55.610;12.100;2022-09-21T10:42:18;101767.09;;;18.39;0.00
22657;BME280;11495;55.610;12.100;2022-09-21T10:44:45;101802.25;;;17.36;0.00
22657;BME280;11495;55.610;12.100;2022-09-21T10:49:41;101738.75;;;16.47;0.00
22657;BME280;11495;55.610;12.100;2022-09-21T10:52:07;101682.03;;;16.53;0.00
22657;BME280;11495;55.610;12.100;2022-09-21T10:54:32;101600.25;;;16.65;0.00
22657;BME280;11495;55.610;12.100;2022-09-21T10:57:04;101558.03;;;17.05;0.00
22657;BME280;11495;55.610;12.100;2022-09-21T10:59:32;101606.53;;;16.75;0.00
22657;BME280;11495;55.610;12.100;2022-09-21T11:01:58;101596.22;;;16.28;0.00
22657;BME280;11495;55.610;12.100;2022-09-21T11:04:38;101518.81;;;16.02;0.00
22657;BME280;11495;55.610;12.100;2022-09-21T11:07:14;101486.62;;;16.01;0.00
22657;BME280;11495;55.610;12.100;2022-09-21T11:09:44;101413.56;;;15.63;0.00
22657;BME280;11495;55.610;12.100;2022-09-21T11:13:01;101223.72;;;15.56;0.00
22657;BME280;11495;55.610;12.100;2022-09-21T11:15:22;101113.59;;;15.42;0.00
22657;BME280;11495;55.610;12.100;2022-09-21T11:17:48;101067.75;;;15.31;0.00
22657;BME280;11495;55.610;12.100;2022-09-21T11:25:28;101183.25;;;15.36;0.00
22657;BME280;11495;55.610;12.100;2022-09-21T11:27:58;101219.28;;;15.36;0.00
22657;BME280;11495;55.610;12.100;2022-09-21T11:30:26;101188.72;;;15.60;0.00
22657;BME280;11495;55.610;12.100;2022-09-21T11:50:52;102013.72;;;18.32;0.00
22657;BME280;11495;55.610;12.100;2022-09-21T11:53:40;102043.03;;;18.48;0.00
22657;BME280;11495;55.610;12.100;2022-09-21T12:01:38;102092.19;;;18.63;0.00
22657;BME280;11495;55.610;12.100;2022-09-21T12:07:07;102113.28;;;18.45;0.00
22657;BME280;11495;55.610;12.100;2022-09-21T12:12:10;102100.44;;;17.33;0.00
22657;BME280;11495;55.610;12.100;2022-09-21T12:19:44;102092.62;;;17.35;0.00
22657;BME280;11495;55.610;12.100;2022-09-21T12:22:56;102097.13;;;17.31;0.00
22657;BME280;11495;55.610;12.100;2022-09-21T12:28:11;102068.03;;;16.74;0.00
22657;BME280;11495;55.610;12.100;2022-09-21T12:30:26;102042.53;;;16.56;0.00
22657;BME280;11495;55.610;12.100;2022-09-21T12:35:24;102062.50;;;17.13;0.00
22657;BME280;11495;55.610;12.100;2022-09-21T12:38:25;102076.09;;;16.60;0.00
22657;BME280;11495;55.610;12.100;2022-09-21T12:40:48;102035.16;;;16.26;0.00
22657;BME280;11495;55.610;12.100;2022-09-21T12:46:02;102014.50;;;15.83;0.00
22657;BME280;11495;55.610;12.100;2022-09-21T12:48:36;101985.63;;;15.84;0.00
22657;BME280;11495;55.610;12.100;2022-09-21T12:53:37;102010.47;;;16.25;0.00
22657;BME280;11495;55.610;12.100;2022-09-21T12:56:05;102034.28;;;16.41;0.00
22657;BME280;11495;55.610;12.100;2022-09-21T13:01:04;102066.97;;;16.54;0.00
22657;BME280;11495;55.610;12.100;2022-09-21T13:03:35;102035.22;;;16.76;0.00
22657;BME280;11495;55.610;12.100;2022-09-21T13:08:41;102064.91;;;17.25;0.00
22657;BME280;11495;55.610;12.100;2022-09-21T13:11:08;102063.00;;;17.54;0.00
22657;BME280;11495;55.610;12.100;2022-09-21T13:13:47;102065.38;;;17.95;0.00
22657;BME280;11495;55.610;12.100;2022-09-21T13:16:26;102083.88;;;18.10;0.00
22657;BME280;11495;55.610;12.100;2022-09-21T13:18:59;102087.13;;;17.93;0.00
22657;BME280;11495;55.610;12.100;2022-09-21T13:21:26;102102.62;;;17.75;0.00
22657;BME280;11495;55.610;12.100;2022-09-21T13:24:00;102096.44;;;17.44;0.00
22657;BME280;11495;55.610;12.100;2022-09-21T13:26:31;102089.19;;;17.48;0.00
22657;BME280;11495;55.610;12.100;2022-09-21T13:34:06;102097.91;;;17.71;0.00
22657;BME280;11495;55.610;12.100;2022-09-21T13:36:40;102094.75;;;17.48;0.00
22657;BME280;11495;55.610;12.100;2022-09-21T13:41:32;102081.41;;;17.45;0.00
22657;BME280;11495;55.610;12.100;2022-09-21T13:51:32;102085.72;;;17.61;0.00
22657;BME280;11495;55.610;12.100;2022-09-21T13:53:57;102104.13;;;17.23;0.00
22657;BME280;11495;55.610;12.100;2022-09-21T13:56:24;102097.38;;;17.29;0.00
22657;BME280;11495;55.610;12.100;2022-09-21T13:58:51;102090.03;;;17.44;0.00
22657;BME280;11495;55.610;12.100;2022-09-21T14:01:21;102093.72;;;17.39;0.00
22657;BME280;11495;55.610;12.100;2022-09-21T14:06:17;102107.84;;;17.48;0.00
22657;BME280;11495;55.610;12.100;2022-09-21T14:08:46;102115.47;;;17.32;0.00
22657;BME280;11495;55.610;12.100;2022-09-21T14:11:14;102103.19;;;17.38;0.00
22657;BME280;11495;55.610;12.100;2022-09-21T14:13:43;102105.66;;;17.39;0.00
22657;BME280;11495;55.610;12.100;2022-09-21T14:18:53;102107.03;;;17.03;0.00
22657;BME280;11495;55.610;12.100;2022-09-21T14:21:19;102110.75;;;16.88;0.00
22657;BME280;11495;55.610;12.100;2022-09-21T14:31:53;102106.88;;;16.84;0.00
22657;BME280;11495;55.610;12.100;2022-09-21T14:34:19;102113.56;;;16.78;0.00
22657;BME280;11495;55.610;12.100;2022-09-21T14:36:47;102105.22;;;16.78;0.00
22657;BME280;11495;55.610;12.100;2022-09-21T14:39:19;102102.94;;;16.90;0.00
22657;BME280;11495;55.610;12.100;2022-09-21T14:41:46;102105.72;;;16.90;0.00
22657;BME280;11495;55.610;12.100;2022-09-21T14:44:19;102096.19;;;17.01;0.00
22657;BME280;11495;55.610;12.100;2022-09-21T14:46:48;102099.50;;;17.08;0.00
22657;BME280;11495;55.610;12.100;2022-09-21T15:00:43;102095.81;;;16.74;0.00
22657;BME280;11495;55.610;12.100;2022-09-21T15:03:04;102092.75;;;16.70;0.00
22657;BME280;11495;55.610;12.100;2022-09-21T15:05:36;102095.25;;;16.62;0.00
22657;BME280;11495;55.610;12.100;2022-09-21T15:11:14;102097.50;;;16.54;0.00
22657;BME280;11495;55.610;12.100;2022-09-21T15:21:44;102078.56;;;16.77;0.00
22657;BME280;11495;55.610;12.100;2022-09-21T15:24:15;102087.69;;;16.82;0.00
22657;BME280;11495;55.610;12.100;2022-09-21T15:26:43;102091.37;;;16.73;0.00
22657;BME280;11495;55.610;12.100;2022-09-21T15:29:10;102098.34;;;16.60;0.00
22657;BME280;11495;55.610;12.100;2022-09-21T15:31:43;102092.44;;;16.77;0.00
22657;BME280;11495;55.610;12.100;2022-09-21T15:34:11;102096.44;;;16.45;0.00
22657;BME280;11495;55.610;12.100;2022-09-21T15:36:38;102091.75;;;16.41;0.00
22657;BME280;11495;55.610;12.100;2022-09-21T15:39:05;102095.97;;;16.23;0.00
22657;BME280;11495;55.610;12.100;2022-09-21T15:41:42;102089.84;;;16.26;0.00
22657;BME280;11495;55.610;12.100;2022-09-21T15:47:01;102078.16;;;16.34;0.00
22657;BME280;11495;55.610;12.100;2022-09-21T15:49:33;102072.66;;;16.24;0.00
22657;BME280;11495;55.610;12.100;2022-09-21T15:52:19;102074.91;;;16.22;0.00